Time;durP1;ratioP1;P1;durP2;ratioP2;P2;SDS_P1;SDS_P2;PMS_P1;PMS_P2;Temp;Humidity;BMP_temperature;BMP_pressure;BME280_temperature;BME280_humidity;BME280_pressure;Samples;Min_cycle;Max_cycle;Signal;HPM_P1;HPM_P2
2024/04/13 00:00:45;;;;;;;2.67;2.33;;;16.60;99.90;;;;;;5384523;26;20259;-67
2024/04/13 00:03:14;;;;;;;2.03;1.90;;;16.60;99.90;;;;;;5382921;26;20349;-67
2024/04/13 00:05:40;;;;;;;7.37;3.57;;;16.60;99.90;;;;;;5387614;26;20329;-66
2024/04/13 00:08:09;;;;;;;4.00;2.83;;;16.50;99.90;;;;;;5385378;26;20230;-67
2024/04/13 00:10:36;;;;;;;4.50;3.07;;;16.50;99.90;;;;;;5383679;26;20236;-66
2024/04/13 00:13:05;;;;;;;2.80;2.50;;;16.50;99.90;;;;;;5380834;26;20239;-67
2024/04/13 00:15:31;;;;;;;3.57;2.80;;;16.40;99.90;;;;;;5384098;26;20580;-67
2024/04/13 00:18:06;;;;;;;3.10;2.50;;;16.40;99.90;;;;;;5384629;26;20344;-67
2024/04/13 00:20:32;;;;;;;4.03;2.90;;;16.30;99.90;;;;;;5389692;26;20283;-67
2024/04/13 00:23:01;;;;;;;3.43;2.53;;;16.30;99.90;;;;;;5386194;26;20231;-68
2024/04/13 00:25:30;;;;;;;4.57;2.93;;;16.20;99.90;;;;;;5384565;26;20229;-67
2024/04/13 00:28:00;;;;;;;5.17;2.40;;;16.20;99.90;;;;;;5388137;26;20236;-67
2024/04/13 00:30:26;;;;;;;6.17;2.40;;;16.20;99.90;;;;;;5374589;26;20230;-67
2024/04/13 00:32:55;;;;;;;2.50;2.00;;;16.10;99.90;;;;;;5376588;26;20283;-67
2024/04/13 00:35:24;;;;;;;5.13;2.00;;;16.00;99.90;;;;;;5383681;26;20334;-67
2024/04/13 00:37:53;;;;;;;3.40;2.27;;;15.90;99.90;;;;;;5384962;26;20248;-67
2024/04/13 00:40:19;;;;;;;3.60;2.40;;;15.90;99.90;;;;;;5382014;26;20317;-68
2024/04/13 00:42:48;;;;;;;4.93;2.17;;;15.80;99.90;;;;;;5388773;26;20247;-67
2024/04/13 00:45:14;;;;;;;1.60;1.50;;;15.80;99.90;;;;;;5395151;26;20270;-67
2024/04/13 00:47:43;;;;;;;1.80;1.50;;;15.70;99.90;;;;;;5405354;26;20290;-67
2024/04/13 00:50:11;;;;;;;2.33;1.67;;;15.70;99.90;;;;;;5398357;26;20267;-67
2024/04/13 00:52:44;;;;;;;1.53;1.43;;;15.70;99.90;;;;;;5399316;26;20243;-67
2024/04/13 00:55:11;;;;;;;3.60;1.37;;;15.70;99.90;;;;;;5401105;26;20232;-67
2024/04/13 00:57:40;;;;;;;2.37;1.70;;;15.60;99.90;;;;;;5396156;26;20306;-67
2024/04/13 01:00:07;;;;;;;1.20;1.10;;;15.60;99.90;;;;;;5401035;26;20332;-67
2024/04/13 01:02:40;;;;;;;2.90;1.50;;;15.60;99.90;;;;;;5406051;26;20243;-67
2024/04/13 01:05:07;;;;;;;3.07;1.30;;;15.60;99.90;;;;;;5397975;26;20716;-66
2024/04/13 01:07:36;;;;;;;2.00;1.47;;;15.70;99.90;;;;;;5407690;26;20240;-66
2024/04/13 01:10:06;;;;;;;2.60;1.70;;;15.70;99.90;;;;;;5402595;26;20730;-67
2024/04/13 01:12:35;;;;;;;1.60;1.50;;;15.80;99.90;;;;;;5395546;26;20394;-67
2024/04/13 01:15:01;;;;;;;1.77;1.50;;;15.80;99.90;;;;;;5405555;26;20278;-67
2024/04/13 01:17:32;;;;;;;2.83;1.70;;;15.80;99.90;;;;;;5399820;26;20278;-67
2024/04/13 01:19:58;;;;;;;2.67;1.80;;;15.80;99.90;;;;;;5385349;26;20228;-68
2024/04/13 01:22:27;;;;;;;1.83;1.60;;;15.80;99.90;;;;;;5386485;26;20244;-67
2024/04/13 01:24:56;;;;;;;3.60;1.57;;;15.80;99.90;;;;;;5378621;26;20336;-68
2024/04/13 01:27:25;;;;;;;1.43;1.33;;;15.80;99.90;;;;;;5395396;26;20711;-67
2024/04/13 01:29:51;;;;;;;1.93;1.13;;;15.70;99.90;;;;;;5401096;26;20275;-67
2024/04/13 01:32:20;;;;;;;2.27;1.60;;;15.70;99.90;;;;;;5402686;26;20773;-67
2024/04/13 01:34:46;;;;;;;1.47;1.33;;;15.70;99.90;;;;;;5379922;26;20236;-67
2024/04/13 01:37:15;;;;;;;1.30;1.20;;;15.70;99.90;;;;;;5381902;26;20245;-67
2024/04/13 01:39:44;;;;;;;2.33;1.40;;;15.80;99.90;;;;;;5383829;26;20302;-67
2024/04/13 01:42:15;;;;;;;2.03;1.10;;;15.80;99.90;;;;;;5384578;26;20382;-68
2024/04/13 01:44:44;;;;;;;1.17;1.13;;;15.80;99.90;;;;;;5385475;26;20236;-67
2024/04/13 01:47:13;;;;;;;1.77;1.30;;;15.80;99.90;;;;;;5388960;26;20243;-67
2024/04/13 01:49:39;;;;;;;1.87;1.50;;;15.80;99.90;;;;;;5384834;26;20237;-66
2024/04/13 01:52:08;;;;;;;1.20;1.10;;;15.80;99.90;;;;;;5391474;26;20235;-66
2024/04/13 01:54:34;;;;;;;2.57;1.30;;;15.80;99.90;;;;;;5384381;26;20255;-66
2024/04/13 01:57:03;;;;;;;2.20;1.27;;;15.80;99.90;;;;;;5391287;26;20761;-67
2024/04/13 01:59:32;;;;;;;1.20;1.10;;;15.80;99.90;;;;;;5391371;26;20230;-67
2024/04/13 02:02:01;;;;;;;3.40;1.90;;;15.80;99.90;;;;;;5384928;26;20273;-67
2024/04/13 02:04:27;;;;;;;2.77;1.40;;;15.80;99.90;;;;;;5391431;26;20240;-67
2024/04/13 02:06:56;;;;;;;2.40;1.60;;;15.80;99.90;;;;;;5398557;26;20242;-67
2024/04/13 02:09:22;;;;;;;3.10;1.87;;;15.80;99.90;;;;;;5392854;26;20282;-67
2024/04/13 02:11:51;;;;;;;2.90;1.80;;;15.80;99.90;;;;;;5398637;26;20232;-68
2024/04/13 02:14:17;;;;;;;1.77;1.40;;;15.80;99.90;;;;;;5393439;26;20279;-66
2024/04/13 02:16:50;;;;;;;2.37;2.13;;;15.80;99.90;;;;;;5383456;26;20275;-67
2024/04/13 02:19:16;;;;;;;2.03;1.77;;;15.80;99.90;;;;;;5397033;26;20228;-66
2024/04/13 02:21:45;;;;;;;1.67;1.57;;;15.80;99.90;;;;;;5393266;26;20451;-67
2024/04/13 02:24:11;;;;;;;1.30;1.20;;;15.70;99.90;;;;;;5399677;26;20233;-66
2024/04/13 02:26:40;;;;;;;1.70;1.60;;;15.80;99.90;;;;;;5376854;26;20242;-67
2024/04/13 02:29:06;;;;;;;2.70;1.30;;;15.70;99.90;;;;;;5380850;26;20265;-67
2024/04/13 02:31:36;;;;;;;5.43;1.67;;;15.70;99.90;;;;;;5377087;26;20294;-67
2024/04/13 02:34:05;;;;;;;2.87;1.50;;;15.60;99.90;;;;;;5387670;26;20231;-67
2024/04/13 02:36:34;;;;;;;4.60;1.50;;;15.60;99.90;;;;;;5383666;26;20700;-67
2024/04/13 02:39:01;;;;;;;2.33;1.40;;;15.60;99.90;;;;;;5392515;26;20281;-67
2024/04/13 02:41:30;;;;;;;3.77;1.67;;;15.60;99.90;;;;;;5383987;26;20240;-67
2024/04/13 02:43:56;;;;;;;3.57;2.20;;;15.60;99.90;;;;;;5387024;26;20299;-67
2024/04/13 02:46:25;;;;;;;1.53;1.30;;;15.60;99.90;;;;;;5375925;26;20274;-67
2024/04/13 02:48:51;;;;;;;3.07;1.40;;;15.60;99.90;;;;;;5393288;26;20243;-67
2024/04/13 02:51:22;;;;;;;4.07;1.63;;;15.60;99.90;;;;;;5384268;26;20248;-67
2024/04/13 02:53:49;;;;;;;2.43;1.40;;;15.60;99.90;;;;;;5395668;26;20346;-67
2024/04/13 02:56:17;;;;;;;3.13;1.57;;;15.60;99.90;;;;;;5384834;26;21039;-67
2024/04/13 02:58:47;;;;;;;1.07;1.00;;;15.30;99.90;;;;;;5383775;26;20284;-67
2024/04/13 03:01:18;;;;;;;1.77;1.30;;;15.60;99.90;;;;;;5393433;26;20228;-67
2024/04/13 03:03:44;;;;;;;1.40;1.10;;;15.70;99.90;;;;;;5393127;26;20240;-67
2024/04/13 03:06:14;;;;;;;1.97;1.30;;;15.60;99.90;;;;;;5395912;26;20231;-66
2024/04/13 03:08:42;;;;;;;1.17;1.07;;;15.60;99.90;;;;;;5394933;26;20357;-67
2024/04/13 03:11:13;;;;;;;2.33;1.30;;;15.60;99.90;;;;;;5388348;26;20292;-67
2024/04/13 03:13:39;;;;;;;2.30;0.93;;;15.60;99.90;;;;;;5378455;26;20375;-67
2024/04/13 03:16:10;;;;;;;1.57;1.07;;;15.60;99.90;;;;;;5378657;26;20241;-67
2024/04/13 03:18:38;;;;;;;1.63;1.20;;;15.60;99.90;;;;;;5374640;26;20322;-67
2024/04/13 03:21:07;;;;;;;1.07;1.00;;;15.60;99.90;;;;;;5376480;26;20788;-68
2024/04/13 03:23:35;;;;;;;1.17;1.07;;;15.50;99.90;;;;;;5379169;26;20569;-67
2024/04/13 03:26:08;;;;;;;1.30;1.00;;;15.60;99.90;;;;;;5377420;26;20380;-67
2024/04/13 03:28:35;;;;;;;0.97;0.83;;;15.50;99.90;;;;;;5381493;26;20282;-67
2024/04/13 03:31:03;;;;;;;0.90;0.77;;;15.60;99.90;;;;;;5380119;26;20244;-67
2024/04/13 03:33:30;;;;;;;6.53;1.30;;;15.60;99.90;;;;;;5382482;26;20365;-68
2024/04/13 03:36:03;;;;;;;2.10;1.53;;;15.50;99.90;;;;;;5380469;26;20256;-68
2024/04/13 03:38:32;;;;;;;1.90;1.23;;;15.60;99.90;;;;;;5383690;26;20309;-67
2024/04/13 03:41:03;;;;;;;1.57;1.30;;;15.50;99.90;;;;;;5382552;26;20287;-67
2024/04/13 03:43:36;;;;;;;1.13;1.03;;;15.50;99.90;;;;;;5382951;26;20252;-67
2024/04/13 03:46:03;;;;;;;1.93;1.07;;;15.50;99.90;;;;;;5382040;26;20462;-67
2024/04/13 03:48:32;;;;;;;1.10;1.10;;;15.50;99.90;;;;;;5386481;26;20296;-66
2024/04/13 03:51:00;;;;;;;1.30;1.20;;;15.50;99.90;;;;;;5384296;26;20228;-67
2024/04/13 03:53:29;;;;;;;0.87;0.87;;;15.40;99.90;;;;;;5387640;26;20232;-67
2024/04/13 03:55:56;;;;;;;1.67;1.30;;;15.40;99.90;;;;;;5388170;26;20269;-67
2024/04/13 03:58:24;;;;;;;1.93;1.10;;;15.40;99.90;;;;;;5385961;26;20322;-67
2024/04/13 04:00:53;;;;;;;1.90;1.20;;;15.40;99.90;;;;;;5391915;26;20290;-67
2024/04/13 04:03:23;;;;;;;1.00;1.00;;;15.50;99.90;;;;;;5378982;26;20280;-67
2024/04/13 04:05:49;;;;;;;1.83;1.03;;;15.50;99.90;;;;;;5394377;26;20277;-67
2024/04/13 04:08:18;;;;;;;1.37;1.27;;;15.50;99.90;;;;;;5378218;26;20333;-66
2024/04/13 04:10:44;;;;;;;1.40;1.10;;;15.50;99.90;;;;;;5376714;26;20360;-68
2024/04/13 04:13:14;;;;;;;0.93;0.80;;;15.50;99.90;;;;;;5376444;26;20243;-67
2024/04/13 04:15:41;;;;;;;0.87;0.87;;;15.50;99.90;;;;;;5376018;26;20237;-66
2024/04/13 04:18:12;;;;;;;2.83;1.30;;;15.50;99.90;;;;;;5377398;26;20243;-67
2024/04/13 04:20:41;;;;;;;2.13;1.60;;;15.50;99.90;;;;;;5362781;26;20278;-67
2024/04/13 04:23:10;;;;;;;1.03;1.00;;;15.50;99.90;;;;;;5378874;26;20239;-68
2024/04/13 04:25:36;;;;;;;1.00;0.90;;;15.50;99.90;;;;;;5376218;26;20706;-68
2024/04/13 04:28:05;;;;;;;0.97;0.90;;;15.50;99.90;;;;;;5376667;26;20583;-67
2024/04/13 04:30:31;;;;;;;2.27;0.90;;;15.40;99.90;;;;;;5379926;26;20564;-68
2024/04/13 04:33:00;;;;;;;2.40;0.90;;;15.40;99.90;;;;;;5380321;26;20267;-67
2024/04/13 04:35:29;;;;;;;0.80;0.80;;;15.50;99.90;;;;;;5380133;26;20680;-67
2024/04/13 04:37:58;;;;;;;2.20;1.10;;;15.40;99.90;;;;;;5384959;26;20277;-67
2024/04/13 04:40:24;;;;;;;1.30;1.17;;;15.50;99.90;;;;;;5380013;26;20283;-66
2024/04/13 04:42:53;;;;;;;0.70;0.70;;;15.50;99.90;;;;;;5379138;26;20259;-67
2024/04/13 04:45:19;;;;;;;1.07;0.97;;;15.50;99.90;;;;;;5385598;26;20236;-67
2024/04/13 04:47:49;;;;;;;1.03;1.00;;;15.50;99.90;;;;;;5397592;26;20232;-67
2024/04/13 04:50:15;;;;;;;2.73;1.13;;;15.50;99.90;;;;;;5391950;26;20240;-66
2024/04/13 04:52:47;;;;;;;1.30;1.20;;;15.50;99.90;;;;;;5395561;26;20290;-67
2024/04/13 04:55:13;;;;;;;0.70;0.70;;;15.50;99.90;;;;;;5381896;26;20259;-67
2024/04/13 04:57:42;;;;;;;2.43;0.80;;;15.40;99.90;;;;;;5396025;26;20815;-67
2024/04/13 05:00:13;;;;;;;0.60;0.60;;;15.40;99.90;;;;;;5394159;26;20640;-67
2024/04/13 05:02:43;;;;;;;0.67;0.67;;;15.40;99.90;;;;;;5399437;26;20305;-67
2024/04/13 05:05:09;;;;;;;1.07;0.57;;;15.30;99.90;;;;;;5390170;26;20243;-66
2024/04/13 05:07:38;;;;;;;1.03;0.60;;;15.40;99.90;;;;;;5386071;26;20259;-67
2024/04/13 05:10:11;;;;;;;0.83;0.70;;;15.40;99.90;;;;;;5379234;26;20240;-68
2024/04/13 05:12:39;;;;;;;0.90;0.90;;;15.40;99.90;;;;;;5380109;26;20476;-68
2024/04/13 05:15:06;;;;;;;2.67;1.47;;;15.40;99.90;;;;;;5381311;26;20236;-66
2024/04/13 05:17:35;;;;;;;1.60;1.10;;;15.50;99.90;;;;;;5381854;26;20293;-65
2024/04/13 05:20:01;;;;;;;0.80;0.80;;;15.50;99.90;;;;;;5385204;26;20275;-67
2024/04/13 05:22:30;;;;;;;1.17;0.70;;;15.50;99.90;;;;;;5381986;26;20286;-67
2024/04/13 05:24:56;;;;;;;1.50;0.63;;;15.40;99.90;;;;;;5380539;26;20275;-66
2024/04/13 05:27:27;;;;;;;0.73;0.73;;;15.30;99.90;;;;;;5382259;26;20394;-66
2024/04/13 05:30:02;;;;;;;0.90;0.90;;;15.30;99.90;;;;;;5379510;26;20270;-66
2024/04/13 05:32:31;;;;;;;0.60;0.60;;;15.30;99.90;;;;;;5382060;26;20282;-66
2024/04/13 05:34:57;;;;;;;1.43;1.00;;;15.30;99.90;;;;;;5383984;26;20231;-67
2024/04/13 05:37:26;;;;;;;0.80;0.80;;;15.40;99.90;;;;;;5383496;26;20248;-67
2024/04/13 05:39:52;;;;;;;1.03;1.00;;;15.30;99.90;;;;;;5380007;26;20615;-67
2024/04/13 05:42:23;;;;;;;2.20;0.90;;;15.30;99.90;;;;;;5393505;26;20239;-66
2024/04/13 05:44:52;;;;;;;1.10;1.10;;;15.30;99.90;;;;;;5377749;26;20614;-67
2024/04/13 05:47:21;;;;;;;2.10;1.00;;;15.40;99.90;;;;;;5395797;26;20236;-67
2024/04/13 05:49:47;;;;;;;0.80;0.80;;;15.40;99.90;;;;;;5383421;26;20307;-67
2024/04/13 05:52:16;;;;;;;0.77;0.70;;;15.40;99.90;;;;;;5396344;26;20235;-66
2024/04/13 05:54:42;;;;;;;0.80;0.80;;;15.40;99.90;;;;;;5384739;26;20737;-66
2024/04/13 05:57:11;;;;;;;1.23;0.90;;;15.40;99.90;;;;;;5384970;26;20571;-67
2024/04/13 05:59:38;;;;;;;1.53;1.10;;;15.50;99.90;;;;;;5381463;26;20232;-66
2024/04/13 06:02:09;;;;;;;1.40;1.10;;;15.40;99.90;;;;;;5375862;26;20293;-66
2024/04/13 06:04:35;;;;;;;1.23;0.80;;;15.40;99.90;;;;;;5360037;26;20232;-67
2024/04/13 06:07:04;;;;;;;0.93;0.93;;;15.40;99.90;;;;;;5380061;26;20353;-67
2024/04/13 06:09:30;;;;;;;0.90;0.90;;;15.30;99.90;;;;;;5357049;26;20814;-67
2024/04/13 06:11:59;;;;;;;1.93;1.00;;;15.40;99.90;;;;;;5375553;26;20283;-67
2024/04/13 06:14:25;;;;;;;1.60;1.30;;;15.40;99.90;;;;;;5380925;26;20236;-67
2024/04/13 06:16:54;;;;;;;1.83;1.07;;;15.30;99.90;;;;;;5379452;26;20727;-66
2024/04/13 06:19:22;;;;;;;1.80;0.77;;;15.30;99.90;;;;;;5385456;26;20248;-67
2024/04/13 06:21:52;;;;;;;1.10;1.00;;;15.20;99.90;;;;;;5381601;26;20287;-66
2024/04/13 06:24:18;;;;;;;1.07;1.07;;;15.20;99.90;;;;;;5385233;26;20267;-66
2024/04/13 06:26:47;;;;;;;0.90;0.90;;;15.20;99.90;;;;;;5382155;26;20291;-67
2024/04/13 06:29:13;;;;;;;0.70;0.70;;;15.30;99.90;;;;;;5379232;26;20351;-67
2024/04/13 06:31:42;;;;;;;2.33;0.80;;;15.20;99.90;;;;;;5385436;26;20839;-67
2024/04/13 06:34:09;;;;;;;0.70;0.70;;;15.20;99.90;;;;;;5377482;26;20684;-67
2024/04/13 06:36:41;;;;;;;1.43;0.80;;;15.20;99.90;;;;;;5383596;26;20353;-67
2024/04/13 06:39:07;;;;;;;1.50;1.00;;;15.30;99.90;;;;;;5382735;26;20504;-67
2024/04/13 06:41:37;;;;;;;0.70;0.70;;;15.30;99.90;;;;;;5390930;26;20805;-67
2024/04/13 06:44:03;;;;;;;0.67;0.67;;;15.30;99.90;;;;;;5388213;26;20288;-67
2024/04/13 06:46:35;;;;;;;0.70;0.70;;;15.30;99.90;;;;;;5390986;26;20258;-66
2024/04/13 06:49:01;;;;;;;0.53;0.50;;;15.30;99.90;;;;;;5391290;26;20282;-66
2024/04/13 06:51:30;;;;;;;0.80;0.80;;;15.30;99.90;;;;;;5399051;26;20360;-67
2024/04/13 06:53:59;;;;;;;0.70;0.70;;;15.30;99.90;;;;;;5394601;26;20229;-66
2024/04/13 06:56:28;;;;;;;0.87;0.60;;;15.40;99.90;;;;;;5378660;26;20264;-66
2024/04/13 06:58:54;;;;;;;2.10;0.90;;;15.50;99.90;;;;;;5375055;26;20239;-66
2024/04/13 07:01:23;;;;;;;0.77;0.77;;;15.50;99.90;;;;;;5387808;26;20339;-66
2024/04/13 07:03:49;;;;;;;0.80;0.80;;;15.60;99.90;;;;;;5384940;26;20278;-65
2024/04/13 07:06:18;;;;;;;0.60;0.60;;;15.60;99.90;;;;;;5378097;26;20362;-66
2024/04/13 07:08:45;;;;;;;0.47;0.47;;;15.50;99.90;;;;;;5388598;26;20278;-66
2024/04/13 07:11:16;;;;;;;0.73;0.73;;;15.50;99.90;;;;;;5379619;26;20241;-66
2024/04/13 07:13:42;;;;;;;0.70;0.60;;;15.40;99.90;;;;;;5389122;26;20279;-66
2024/04/13 07:16:12;;;;;;;0.60;0.60;;;15.50;99.90;;;;;;5387781;26;20287;-67
2024/04/13 07:18:38;;;;;;;0.50;0.50;;;15.50;99.90;;;;;;5398010;26;20233;-67
2024/04/13 07:21:07;;;;;;;0.67;0.67;;;15.50;99.90;;;;;;5391117;26;20557;-65
2024/04/13 07:23:36;;;;;;;0.60;0.60;;;15.60;99.90;;;;;;5401120;26;20290;-66
2024/04/13 07:26:06;;;;;;;2.67;0.70;;;15.60;99.90;;;;;;5389556;26;20286;-67
2024/04/13 07:28:35;;;;;;;0.83;0.60;;;15.60;99.90;;;;;;5386631;26;20232;-66
2024/04/13 07:31:04;;;;;;;2.60;0.90;;;15.60;99.90;;;;;;5376578;26;20341;-66
2024/04/13 07:33:31;;;;;;;0.60;0.60;;;15.60;99.90;;;;;;5389542;26;20747;-67
2024/04/13 07:35:59;;;;;;;0.70;0.70;;;15.60;99.90;;;;;;5384806;26;20597;-67
2024/04/13 07:38:26;;;;;;;0.87;0.87;;;15.60;99.90;;;;;;5386605;26;20255;-66
2024/04/13 07:40:54;;;;;;;1.80;0.50;;;15.50;99.90;;;;;;5384435;26;20646;-67
2024/04/13 07:43:23;;;;;;;0.60;0.60;;;15.60;99.90;;;;;;5393560;26;20763;-67
2024/04/13 07:45:55;;;;;;;0.60;0.60;;;15.60;99.90;;;;;;5375938;26;20241;-67
2024/04/13 07:48:21;;;;;;;2.30;0.83;;;15.70;99.90;;;;;;5395354;26;20338;-66
2024/04/13 07:50:50;;;;;;;1.00;1.00;;;15.70;99.90;;;;;;5389368;26;20240;-67
2024/04/13 07:53:16;;;;;;;2.50;1.40;;;15.80;99.90;;;;;;5381034;26;20611;-66
2024/04/13 07:55:45;;;;;;;1.40;1.30;;;15.80;99.90;;;;;;5376656;26;20286;-67
2024/04/13 07:58:11;;;;;;;1.37;1.27;;;15.80;99.90;;;;;;5375339;26;20239;-67
2024/04/13 08:00:41;;;;;;;1.53;1.23;;;15.80;99.90;;;;;;5385010;26;20247;-66
2024/04/13 08:03:10;;;;;;;1.47;1.37;;;15.80;99.90;;;;;;5377409;26;20235;-67
2024/04/13 08:05:39;;;;;;;2.17;1.97;;;15.70;99.90;;;;;;5387163;26;20553;-65
2024/04/13 08:08:06;;;;;;;2.10;2.00;;;15.70;99.90;;;;;;5380202;26;20239;-67
2024/04/13 08:10:42;;;;;;;3.77;2.47;;;15.70;99.90;;;;;;5380862;26;20282;-65
2024/04/13 08:13:08;;;;;;;2.27;1.73;;;15.70;99.90;;;;;;5388872;26;20323;-66
2024/04/13 08:15:40;;;;;;;7.10;2.73;;;15.70;99.90;;;;;;5376924;26;20232;-66
2024/04/13 08:18:07;;;;;;;3.27;1.97;;;15.70;99.90;;;;;;5396344;26;20235;-66
2024/04/13 08:20:39;;;;;;;3.20;2.00;;;15.70;99.90;;;;;;5391967;26;20549;-66
2024/04/13 08:23:05;;;;;;;2.00;1.63;;;15.70;99.90;;;;;;5390330;26;20710;-66
2024/04/13 08:25:34;;;;;;;2.23;1.90;;;15.70;99.90;;;;;;5395934;26;20561;-66
2024/04/13 08:28:03;;;;;;;3.20;1.90;;;15.70;99.90;;;;;;5386982;26;20232;-66
2024/04/13 08:30:33;;;;;;;2.70;1.80;;;15.70;99.90;;;;;;5390744;26;20692;-65
2024/04/13 08:32:59;;;;;;;4.93;1.70;;;15.70;99.90;;;;;;5383635;26;20232;-66
2024/04/13 08:35:29;;;;;;;1.80;1.70;;;15.70;99.90;;;;;;5398775;26;20252;-66
2024/04/13 08:37:57;;;;;;;1.70;1.60;;;15.70;99.90;;;;;;5401204;26;20276;-66
2024/04/13 08:40:26;;;;;;;4.73;2.40;;;15.70;99.90;;;;;;5391602;26;20307;-66
2024/04/13 08:42:59;;;;;;;3.47;2.40;;;15.70;99.90;;;;;;5395719;26;20235;-65
2024/04/13 08:45:29;;;;;;;2.00;1.90;;;15.60;99.90;;;;;;5393817;26;20763;-66
2024/04/13 08:47:57;;;;;;;2.17;1.60;;;15.70;99.90;;;;;;5394464;26;20231;-66
2024/04/13 08:50:27;;;;;;;1.50;1.30;;;15.70;99.90;;;;;;5378459;26;20770;-66
2024/04/13 08:52:53;;;;;;;2.83;2.10;;;15.70;99.90;;;;;;5377783;26;20236;-65
2024/04/13 08:55:25;;;;;;;2.80;2.43;;;15.70;99.90;;;;;;5378861;26;20236;-66
2024/04/13 08:57:52;;;;;;;1.67;1.57;;;15.80;99.90;;;;;;5379215;26;20281;-67
2024/04/13 09:00:24;;;;;;;2.10;1.90;;;15.80;99.90;;;;;;5381517;26;20287;-66
2024/04/13 09:02:55;;;;;;;2.80;2.20;;;15.80;99.90;;;;;;5379601;26;20571;-66
2024/04/13 09:05:25;;;;;;;2.13;1.90;;;15.90;99.90;;;;;;5384318;26;20248;-67
2024/04/13 09:07:52;;;;;;;1.93;1.83;;;15.90;99.90;;;;;;5390349;26;20309;-66
2024/04/13 09:10:24;;;;;;;1.80;1.70;;;15.90;99.90;;;;;;5385390;26;20443;-67
2024/04/13 09:12:50;;;;;;;1.87;1.73;;;15.80;99.90;;;;;;5388595;26;20718;-66
2024/04/13 09:15:19;;;;;;;2.17;1.60;;;15.80;99.90;;;;;;5387376;26;20681;-65
2024/04/13 09:17:45;;;;;;;2.70;1.40;;;15.80;99.90;;;;;;5387123;26;20278;-66
2024/04/13 09:20:15;;;;;;;1.40;1.30;;;15.90;99.90;;;;;;5389231;26;20572;-65
2024/04/13 09:22:42;;;;;;;1.57;1.20;;;16.00;99.90;;;;;;5395258;26;20224;-66
2024/04/13 09:25:21;;;;;;;2.10;1.20;;;16.10;99.90;;;;;;5386771;26;20795;-67
2024/04/13 09:28:00;;;;;;;1.83;1.30;;;16.20;99.90;;;;;;5390743;26;20254;-67
2024/04/13 09:30:31;;;;;;;3.63;1.57;;;16.20;99.90;;;;;;5394450;26;20475;-66
2024/04/13 09:33:01;;;;;;;2.30;1.60;;;16.20;99.90;;;;;;5383914;26;20283;-66
2024/04/13 09:35:30;;;;;;;1.83;1.60;;;16.20;99.90;;;;;;5401925;26;20703;-66
2024/04/13 09:37:57;;;;;;;1.93;1.70;;;16.20;99.90;;;;;;5387540;26;20758;-65
2024/04/13 09:40:26;;;;;;;2.77;1.93;;;16.20;99.90;;;;;;5404256;26;20311;-66
2024/04/13 09:42:52;;;;;;;2.30;1.90;;;16.20;99.90;;;;;;5385100;26;20311;-66
2024/04/13 09:45:23;;;;;;;4.10;2.10;;;16.20;99.90;;;;;;5392788;26;20551;-66
2024/04/13 09:47:52;;;;;;;3.70;2.13;;;16.30;99.90;;;;;;5368239;26;20584;-66
2024/04/13 09:50:21;;;;;;;2.83;2.00;;;16.20;99.90;;;;;;5375199;26;20262;-65
2024/04/13 09:52:48;;;;;;;1.63;1.40;;;16.20;99.90;;;;;;5379664;26;20237;-66
2024/04/13 09:55:18;;;;;;;1.90;1.60;;;16.20;99.90;;;;;;5376753;26;20240;-65
2024/04/13 09:57:46;;;;;;;2.33;1.63;;;16.30;99.90;;;;;;5393590;26;20256;-66
2024/04/13 10:00:19;;;;;;;2.37;1.90;;;16.30;99.90;;;;;;5372864;26;20344;-66
2024/04/13 10:02:48;;;;;;;2.40;1.80;;;16.40;99.90;;;;;;5378328;26;20620;-66
2024/04/13 10:05:17;;;;;;;4.77;2.27;;;16.40;99.90;;;;;;5383608;26;20245;-65
2024/04/13 10:07:44;;;;;;;2.40;2.20;;;16.40;99.90;;;;;;5377944;26;20233;-66
2024/04/13 10:10:14;;;;;;;5.63;2.10;;;16.40;99.90;;;;;;5377841;26;20619;-66
2024/04/13 10:12:42;;;;;;;2.37;2.00;;;16.40;99.90;;;;;;5376410;26;20281;-66
2024/04/13 10:15:12;;;;;;;1.63;1.40;;;16.30;99.90;;;;;;5390569;26;20247;-66
2024/04/13 10:17:40;;;;;;;3.97;2.20;;;16.30;99.90;;;;;;5386178;26;20237;-66
2024/04/13 10:20:12;;;;;;;1.90;1.80;;;16.30;99.90;;;;;;5386559;26;20247;-66
2024/04/13 10:22:39;;;;;;;2.03;1.73;;;16.40;99.90;;;;;;5373195;26;20662;-66
2024/04/13 10:25:08;;;;;;;1.83;1.73;;;16.40;99.90;;;;;;5397306;26;20301;-66
2024/04/13 10:27:35;;;;;;;2.23;1.53;;;16.50;99.90;;;;;;5372081;26;20240;-66
2024/04/13 10:30:04;;;;;;;4.10;1.73;;;16.60;99.90;;;;;;5397154;26;20390;-66
2024/04/13 10:32:31;;;;;;;1.73;1.40;;;16.70;99.90;;;;;;5376807;26;20727;-66
2024/04/13 10:35:12;;;;;;;1.30;1.20;;;16.70;99.90;;;;;;5384931;26;20697;-66
2024/04/13 10:37:39;;;;;;;1.80;1.67;;;16.80;99.90;;;;;;5381304;26;20607;-66
2024/04/13 10:40:10;;;;;;;1.50;1.40;;;16.80;99.90;;;;;;5399529;26;20249;-66
2024/04/13 10:42:37;;;;;;;1.77;1.20;;;16.90;99.90;;;;;;5352060;26;20283;-66
2024/04/13 10:45:18;;;;;;;1.27;1.10;;;16.90;99.90;;;;;;5378411;26;20340;-66
2024/04/13 10:47:44;;;;;;;1.83;1.20;;;16.90;99.90;;;;;;5348909;26;20368;-65
2024/04/13 10:50:18;;;;;;;2.93;1.60;;;17.00;99.90;;;;;;5376868;26;21112;-66
2024/04/13 10:52:45;;;;;;;1.23;1.17;;;17.10;99.90;;;;;;5379561;26;20272;-67
2024/04/13 10:55:15;;;;;;;3.90;1.50;;;17.20;99.90;;;;;;5380742;26;20242;-66
2024/04/13 10:57:41;;;;;;;1.70;1.43;;;17.30;99.90;;;;;;5375211;26;20658;-66
2024/04/13 11:00:11;;;;;;;3.47;1.27;;;17.40;99.90;;;;;;5381308;26;20238;-66
2024/04/13 11:02:38;;;;;;;1.97;1.50;;;17.60;99.90;;;;;;5382293;26;20739;-66
2024/04/13 11:05:08;;;;;;;1.20;1.20;;;17.70;99.90;;;;;;5382877;26;20240;-66
2024/04/13 11:07:37;;;;;;;1.58;1.48;;;17.80;99.90;;;;;;5377408;26;20529;-66
2024/04/13 11:10:06;;;;;;;1.70;1.27;;;18.10;99.90;;;;;;5383551;26;20244;-67
2024/04/13 11:12:32;;;;;;;1.30;1.23;;;18.20;99.90;;;;;;5375553;26;20348;-66
2024/04/13 11:15:02;;;;;;;2.17;1.77;;;18.40;99.90;;;;;;5380307;26;20232;-66
2024/04/13 11:17:28;;;;;;;3.25;1.70;;;18.60;99.90;;;;;;5386010;26;20299;-66
2024/04/13 11:19:57;;;;;;;1.42;1.33;;;18.80;99.90;;;;;;5389798;26;20239;-66
2024/04/13 11:22:26;;;;;;;2.30;1.17;;;18.80;99.90;;;;;;5386485;26;20241;-66
2024/04/13 11:24:58;;;;;;;2.15;1.50;;;18.90;99.90;;;;;;5392819;26;20299;-66
2024/04/13 11:27:24;;;;;;;6.53;1.40;;;19.00;99.90;;;;;;5389740;26;20283;-66
2024/04/13 11:29:54;;;;;;;4.00;1.20;;;19.00;99.90;;;;;;5393881;26;20337;-65
2024/04/13 11:32:20;;;;;;;1.85;1.20;;;19.00;99.90;;;;;;5391844;26;20236;-66
2024/04/13 11:34:49;;;;;;;1.35;1.25;;;18.90;99.90;;;;;;5395322;26;20299;-66
2024/04/13 11:37:15;;;;;;;1.77;1.65;;;18.90;99.90;;;;;;5386233;26;20237;-66
2024/04/13 11:39:45;;;;;;;4.13;1.80;;;18.80;99.90;;;;;;5378301;26;20532;-66
2024/04/13 11:42:14;;;;;;;2.00;1.50;;;18.80;99.90;;;;;;5407816;26;20698;-67
2024/04/13 11:44:44;;;;;;;1.63;1.52;;;18.80;99.90;;;;;;5388214;26;20286;-66
2024/04/13 11:47:10;;;;;;;2.17;1.58;;;18.80;99.90;;;;;;5376875;26;20584;-67
2024/04/13 11:49:40;;;;;;;1.17;1.10;;;18.80;99.90;;;;;;5378932;26;20947;-67
2024/04/13 11:52:10;;;;;;;2.60;1.25;;;18.80;99.90;;;;;;5380251;26;20232;-66
2024/04/13 11:54:39;;;;;;;1.20;1.10;;;18.90;99.90;;;;;;5388175;26;20255;-67
2024/04/13 11:57:10;;;;;;;1.40;1.30;;;18.90;99.90;;;;;;5379755;26;20240;-67
2024/04/13 11:59:41;;;;;;;3.83;1.30;;;18.90;99.90;;;;;;5374744;26;20236;-66
2024/04/13 12:02:08;;;;;;;1.27;1.17;;;18.90;99.90;;;;;;5386852;26;20252;-66
2024/04/13 12:04:37;;;;;;;1.27;1.20;;;18.90;99.60;;;;;;5371624;26;20440;-66
2024/04/13 12:07:04;;;;;;;1.10;0.80;;;18.90;99.70;;;;;;5384426;26;20235;-67
2024/04/13 12:09:33;;;;;;;1.10;0.90;;;19.10;99.70;;;;;;5391429;26;20239;-66
2024/04/13 12:11:59;;;;;;;2.10;1.30;;;19.20;99.70;;;;;;5392610;26;20269;-66
2024/04/13 12:14:28;;;;;;;1.35;1.00;;;19.40;99.60;;;;;;5382156;26;20721;-65
2024/04/13 12:16:56;;;;;;;0.90;0.90;;;19.60;99.50;;;;;;5379655;26;20351;-66
2024/04/13 12:19:25;;;;;;;1.25;1.20;;;19.70;99.20;;;;;;5380847;26;20294;-66
2024/04/13 12:21:51;;;;;;;0.93;0.90;;;19.80;99.10;;;;;;5392921;26;20276;-66
2024/04/13 12:24:21;;;;;;;1.00;1.00;;;19.90;99.10;;;;;;5389230;26;20300;-66
2024/04/13 12:26:48;;;;;;;1.30;1.20;;;19.90;98.60;;;;;;5375928;26;20750;-66
2024/04/13 12:29:16;;;;;;;1.20;1.02;;;19.90;98.40;;;;;;5381472;26;20708;-66
2024/04/13 12:31:43;;;;;;;1.02;0.90;;;19.90;98.20;;;;;;5397469;26;20341;-66
2024/04/13 12:34:14;;;;;;;1.92;1.10;;;19.80;98.20;;;;;;5372866;26;20391;-65
2024/04/13 12:36:40;;;;;;;0.98;0.98;;;19.80;98.10;;;;;;5374131;26;20278;-66
2024/04/13 12:39:10;;;;;;;0.82;0.80;;;19.80;98.10;;;;;;5374756;26;20256;-66
2024/04/13 12:41:37;;;;;;;1.05;1.05;;;19.90;98.10;;;;;;5409708;26;20239;-66
2024/04/13 12:44:05;;;;;;;0.90;0.90;;;20.10;98.00;;;;;;5379241;26;20329;-66
2024/04/13 12:46:32;;;;;;;1.02;1.00;;;20.30;97.90;;;;;;5375957;26;20229;-66
2024/04/13 12:49:01;;;;;;;1.70;1.10;;;20.40;97.80;;;;;;5379844;26;20361;-66
2024/04/13 12:51:30;;;;;;;1.45;1.30;;;20.50;97.60;;;;;;5381849;26;20232;-67
2024/04/13 12:53:58;;;;;;;3.08;1.30;;;20.60;97.50;;;;;;5382588;26;20295;-66